createdAt,value
2022-08-26T00:00:16.472Z,76.80
2022-08-26T00:01:19.054Z,77.00
2022-08-26T00:02:31.046Z,77.00
2022-08-26T00:03:32.826Z,77.00
2022-08-26T00:04:34.682Z,76.80
2022-08-26T00:05:36.758Z,76.70
2022-08-26T00:06:42.520Z,76.90
2022-08-26T00:07:48.020Z,77.20
2022-08-26T00:08:50.915Z,76.80
2022-08-26T00:09:54.357Z,76.50
2022-08-26T00:10:57.024Z,76.40
2022-08-26T00:12:01.699Z,76.20
2022-08-26T00:13:05.310Z,76.20
2022-08-26T00:14:07.217Z,76.20
2022-08-26T00:15:11.222Z,75.90
2022-08-26T00:16:13.304Z,76.20
2022-08-26T00:17:15.042Z,76.00
2022-08-26T00:18:22.351Z,75.90
2022-08-26T00:19:24.520Z,76.10
2022-08-26T00:20:30.382Z,76.10
2022-08-26T00:21:32.584Z,76.20
2022-08-26T00:22:34.290Z,76.30
2022-08-26T00:23:41.837Z,76.20
2022-08-26T00:24:47.820Z,76.30
2022-08-26T00:25:49.877Z,76.60
2022-08-26T00:26:51.785Z,76.50
2022-08-26T00:27:53.584Z,76.60
2022-08-26T00:28:57.752Z,76.80
2022-08-26T00:30:05.284Z,76.90
2022-08-26T00:31:07.885Z,76.70
2022-08-26T00:32:12.941Z,77.10
2022-08-26T00:33:17.700Z,77.10
2022-08-26T00:34:20.181Z,76.40
2022-08-26T00:35:23.113Z,76.30
2022-08-26T00:36:25.522Z,76.70
2022-08-26T00:37:32.258Z,77.00
2022-08-26T00:38:35.638Z,77.10
2022-08-26T00:39:39.627Z,77.10
2022-08-26T00:40:48.635Z,77.80
2022-08-26T00:41:50.510Z,77.70
2022-08-26T00:42:52.397Z,77.80
2022-08-26T00:43:54.277Z,77.40
2022-08-26T00:44:56.581Z,77.50
2022-08-26T00:46:05.234Z,77.30
2022-08-26T00:47:21.369Z,77.20
2022-08-26T00:48:26.704Z,77.10
2022-08-26T00:49:40.358Z,77.50
2022-08-26T00:50:49.170Z,77.50
2022-08-26T00:51:54.324Z,77.10
2022-08-26T00:53:00.179Z,76.80
2022-08-26T00:54:05.973Z,77.30
2022-08-26T00:55:20.154Z,77.20
2022-08-26T00:56:34.031Z,77.60
2022-08-26T00:57:36.677Z,77.40
2022-08-26T00:58:42.886Z,77.30
2022-08-26T00:59:48.277Z,77.10
2022-08-26T01:00:50.037Z,76.80
2022-08-26T01:01:52.171Z,77.30
2022-08-26T01:02:56.027Z,77.50
2022-08-26T01:03:58.149Z,77.70
2022-08-26T01:05:03.381Z,77.80
2022-08-26T01:06:12.638Z,77.80
2022-08-26T01:07:16.273Z,78.00
2022-08-26T01:08:18.000Z,77.90
2022-08-26T01:09:22.303Z,77.90
2022-08-26T01:10:27.806Z,77.90
2022-08-26T01:11:30.510Z,78.50
2022-08-26T01:12:40.335Z,78.10
2022-08-26T01:13:42.630Z,78.20
2022-08-26T01:14:46.543Z,78.50
2022-08-26T01:15:51.753Z,78.40
2022-08-26T01:16:55.232Z,78.50
2022-08-26T01:17:58.885Z,78.40
2022-08-26T01:19:09.671Z,78.10
2022-08-26T01:20:40.105Z,78.20
2022-08-26T01:21:54.629Z,78.90
2022-08-26T01:23:03.287Z,79.20
2022-08-26T01:24:06.732Z,78.90
2022-08-26T01:25:08.900Z,79.10
2022-08-26T01:26:23.050Z,79.30
2022-08-26T01:27:32.549Z,79.10
2022-08-26T01:28:36.172Z,79.10
2022-08-26T01:29:40.827Z,79.10
2022-08-26T01:30:44.803Z,79.20
2022-08-26T01:31:57.630Z,79.20
2022-08-26T01:33:03.378Z,79.30
2022-08-26T01:34:09.085Z,78.80
2022-08-26T01:35:11.220Z,78.60
2022-08-26T01:36:13.259Z,78.60
2022-08-26T01:37:21.884Z,78.50
2022-08-26T01:38:23.705Z,78.30
2022-08-26T01:39:25.627Z,78.80
2022-08-26T01:40:32.603Z,78.90
2022-08-26T01:41:35.306Z,79.10
2022-08-26T01:42:38.160Z,78.90
2022-08-26T01:43:40.963Z,78.90
2022-08-26T01:44:49.462Z,78.50
2022-08-26T01:45:54.664Z,79.00
2022-08-26T01:46:58.739Z,78.60
2022-08-26T01:48:04.465Z,78.50
2022-08-26T01:49:08.324Z,78.20
2022-08-26T01:50:28.042Z,78.30
2022-08-26T01:51:37.026Z,78.10
2022-08-26T01:52:42.020Z,78.70
2022-08-26T01:53:46.023Z,78.20
2022-08-26T01:54:50.561Z,78.30
2022-08-26T01:55:57.727Z,78.20
2022-08-26T01:57:00.986Z,78.20
2022-08-26T01:58:18.158Z,78.20
2022-08-26T01:59:21.155Z,78.60
2022-08-26T02:00:24.563Z,78.00
2022-08-26T02:01:29.074Z,77.40
2022-08-26T02:02:31.037Z,77.50
2022-08-26T02:03:33.772Z,77.20
2022-08-26T02:04:48.699Z,77.40
2022-08-26T02:05:58.730Z,78.00
2022-08-26T02:07:08.077Z,78.30
2022-08-26T02:08:11.178Z,77.60
2022-08-26T02:09:13.466Z,77.80
2022-08-26T02:10:17.013Z,77.20
2022-08-26T02:11:21.708Z,77.10
2022-08-26T02:12:23.705Z,77.10
2022-08-26T02:13:31.577Z,77.10
2022-08-26T02:14:43.831Z,76.70
2022-08-26T02:15:46.810Z,76.70
2022-08-26T02:16:52.246Z,77.40
2022-08-26T02:17:54.111Z,77.60
2022-08-26T02:19:01.228Z,77.40
2022-08-26T02:20:06.462Z,77.30
2022-08-26T02:21:16.393Z,77.20
2022-08-26T02:22:22.583Z,77.10
2022-08-26T02:23:26.609Z,77.60
2022-08-26T02:24:30.813Z,77.30
2022-08-26T02:25:43.466Z,78.00
2022-08-26T02:26:46.241Z,77.80
2022-08-26T02:27:48.397Z,77.70
2022-08-26T02:28:51.604Z,77.60
2022-08-26T02:29:58.668Z,78.20
2022-08-26T02:31:00.719Z,78.10
2022-08-26T02:32:08.416Z,78.30
2022-08-26T02:33:11.091Z,78.00
2022-08-26T02:34:16.649Z,77.70
2022-08-26T02:35:20.500Z,77.70
2022-08-26T02:36:25.015Z,77.70
2022-08-26T02:37:31.997Z,77.50
2022-08-26T02:38:36.497Z,78.10
2022-08-26T02:39:41.895Z,77.80
2022-08-26T02:40:44.070Z,77.70
2022-08-26T02:41:46.893Z,78.10
2022-08-26T02:42:49.817Z,77.70
2022-08-26T02:43:55.907Z,77.90
2022-08-26T02:44:57.630Z,77.90
2022-08-26T02:46:01.959Z,77.90
2022-08-26T02:47:04.463Z,78.40
2022-08-26T02:48:17.177Z,78.40
2022-08-26T02:49:22.300Z,78.10
2022-08-26T02:50:25.708Z,77.80
2022-08-26T02:51:28.068Z,77.60
2022-08-26T02:52:29.796Z,77.90
2022-08-26T02:53:31.973Z,77.80
2022-08-26T02:54:37.897Z,78.30
2022-08-26T02:55:42.181Z,77.70
2022-08-26T02:56:44.911Z,78.00
2022-08-26T02:57:46.770Z,78.10
2022-08-26T02:58:48.834Z,78.00
2022-08-26T02:59:50.814Z,78.10
2022-08-26T03:00:53.791Z,77.50
2022-08-26T03:01:56.543Z,77.40
2022-08-26T03:02:59.332Z,77.50
2022-08-26T03:04:04.333Z,77.30
2022-08-26T03:05:07.347Z,77.50
2022-08-26T03:06:09.037Z,77.70
2022-08-26T03:07:10.888Z,77.40
2022-08-26T03:08:12.617Z,77.20
2022-08-26T03:09:18.522Z,77.30
2022-08-26T03:10:21.447Z,77.30
2022-08-26T03:11:23.975Z,77.30
2022-08-26T03:12:26.620Z,77.40
2022-08-26T03:13:28.403Z,77.70
2022-08-26T03:14:30.416Z,77.60
2022-08-26T03:15:32.428Z,77.60
2022-08-26T03:16:37.889Z,77.90
2022-08-26T03:17:39.940Z,78.30
2022-08-26T03:18:42.364Z,78.00
2022-08-26T03:19:44.114Z,78.00
2022-08-26T03:20:46.494Z,77.50
2022-08-26T03:21:48.492Z,77.70
2022-08-26T03:22:56.133Z,77.60
2022-08-26T03:23:58.794Z,77.70
2022-08-26T03:25:00.743Z,78.00
2022-08-26T03:26:05.329Z,78.20
2022-08-26T03:27:07.617Z,78.30
2022-08-26T03:28:09.719Z,78.30
2022-08-26T03:29:30.506Z,77.60
2022-08-26T03:30:45.092Z,78.00
2022-08-26T03:31:47.446Z,78.50
2022-08-26T03:32:49.390Z,78.40
2022-08-26T03:33:51.900Z,78.70
2022-08-26T03:34:54.249Z,78.20
2022-08-26T03:35:56.035Z,78.60
2022-08-26T03:36:58.853Z,78.30
2022-08-26T03:38:01.917Z,78.10
2022-08-26T03:39:03.747Z,78.00
2022-08-26T03:40:10.410Z,78.10
2022-08-26T03:41:12.309Z,78.30
2022-08-26T03:42:14.929Z,78.30
2022-08-26T03:43:17.366Z,78.60
2022-08-26T03:44:19.895Z,78.10
2022-08-26T03:45:22.067Z,78.30
2022-08-26T03:46:23.985Z,78.50
2022-08-26T03:47:28.524Z,79.10
2022-08-26T03:48:30.225Z,78.10
2022-08-26T03:49:32.935Z,78.20
2022-08-26T03:50:35.835Z,78.10
2022-08-26T03:51:38.825Z,78.50
2022-08-26T03:52:43.841Z,78.10
2022-08-26T03:53:47.704Z,78.20
2022-08-26T03:54:50.080Z,77.90
2022-08-26T03:55:52.180Z,77.90
2022-08-26T03:56:53.974Z,78.00
2022-08-26T03:57:55.787Z,78.00
2022-08-26T03:58:57.512Z,77.90
2022-08-26T03:59:59.455Z,78.10
2022-08-26T04:01:01.212Z,78.70
2022-08-26T04:02:03.949Z,78.70
2022-08-26T04:03:33.199Z,78.80
2022-08-26T04:04:35.325Z,78.80
2022-08-26T04:05:37.361Z,78.50
2022-08-26T04:06:43.272Z,78.40
2022-08-26T04:07:47.533Z,78.80
2022-08-26T04:08:50.543Z,78.90
2022-08-26T04:09:57.044Z,78.60
2022-08-26T04:11:01.225Z,78.90
2022-08-26T04:12:03.923Z,78.50
2022-08-26T04:13:06.623Z,78.80
2022-08-26T04:14:14.294Z,79.10
2022-08-26T04:15:21.719Z,79.40
2022-08-26T04:16:23.778Z,79.30
2022-08-26T04:17:29.567Z,78.80
2022-08-26T04:18:37.221Z,78.80
2022-08-26T04:19:39.568Z,79.00
2022-08-26T04:20:41.287Z,78.80
2022-08-26T04:21:44.539Z,79.10
2022-08-26T04:22:46.336Z,79.10
2022-08-26T04:23:48.736Z,78.90
2022-08-26T04:24:50.443Z,78.90
2022-08-26T04:25:52.164Z,79.00
2022-08-26T04:26:53.872Z,79.00
2022-08-26T04:27:55.625Z,78.90
2022-08-26T04:28:57.323Z,78.80
2022-08-26T04:30:01.679Z,78.80
2022-08-26T04:31:04.079Z,79.20
2022-08-26T04:32:06.012Z,79.20
2022-08-26T04:33:12.973Z,79.30
2022-08-26T04:34:15.349Z,79.40
2022-08-26T04:35:17.745Z,79.00
2022-08-26T04:36:19.898Z,79.30
2022-08-26T04:37:22.322Z,79.60
2022-08-26T04:38:24.395Z,79.60
2022-08-26T04:39:27.633Z,79.70
2022-08-26T04:40:29.675Z,79.60
2022-08-26T04:41:31.958Z,80.00
2022-08-26T04:42:33.822Z,80.00
2022-08-26T04:43:36.986Z,80.60
2022-08-26T04:44:41.102Z,80.50
2022-08-26T04:45:43.975Z,80.70
2022-08-26T04:46:45.770Z,80.40
2022-08-26T04:47:47.526Z,80.40
2022-08-26T04:48:51.949Z,80.50
2022-08-26T04:49:57.589Z,80.90
2022-08-26T04:51:03.495Z,80.40
2022-08-26T04:52:07.139Z,80.60
2022-08-26T04:53:09.726Z,80.30
2022-08-26T04:54:11.543Z,80.30
2022-08-26T04:55:13.257Z,80.20
2022-08-26T04:56:16.862Z,80.30
2022-08-26T04:57:18.844Z,80.40
2022-08-26T04:58:22.434Z,80.60
2022-08-26T04:59:25.288Z,80.50
2022-08-26T05:00:27.012Z,80.60
2022-08-26T05:01:31.179Z,80.70
2022-08-26T05:02:32.963Z,80.60
2022-08-26T05:03:36.232Z,80.40
2022-08-26T05:04:37.982Z,81.00
2022-08-26T05:05:41.871Z,80.60
2022-08-26T05:06:43.642Z,80.90
2022-08-26T05:07:45.379Z,80.90
2022-08-26T05:08:47.658Z,80.90
2022-08-26T05:09:49.425Z,80.90
2022-08-26T05:10:57.245Z,80.90
2022-08-26T05:11:59.021Z,80.70
2022-08-26T05:13:01.357Z,80.70
2022-08-26T05:14:03.265Z,81.10
2022-08-26T05:15:05.798Z,81.00
2022-08-26T05:16:11.583Z,80.90
2022-08-26T05:17:14.958Z,80.70
2022-08-26T05:18:20.707Z,80.60
2022-08-26T05:19:23.665Z,80.40
2022-08-26T05:20:25.778Z,80.70
2022-08-26T05:21:29.131Z,80.70
2022-08-26T05:22:31.070Z,80.60
2022-08-26T05:23:35.702Z,80.50
2022-08-26T05:24:37.515Z,80.60
2022-08-26T05:25:43.021Z,80.90
2022-08-26T05:26:45.361Z,81.10
2022-08-26T05:27:47.117Z,80.60
2022-08-26T05:28:49.343Z,80.70
2022-08-26T05:29:54.635Z,80.80
2022-08-26T05:30:56.705Z,80.90
2022-08-26T05:31:58.496Z,80.70
2022-08-26T05:33:01.901Z,80.50
2022-08-26T05:34:04.732Z,80.60
2022-08-26T05:35:07.754Z,80.80
2022-08-26T05:36:15.150Z,80.50
2022-08-26T05:37:17.047Z,80.40
2022-08-26T05:38:21.600Z,80.90
2022-08-26T05:39:24.556Z,80.80
2022-08-26T05:40:27.133Z,80.70
2022-08-26T05:41:36.637Z,80.20
2022-08-26T05:42:40.271Z,80.30
2022-08-26T05:43:42.102Z,79.90
2022-08-26T05:44:55.599Z,79.70
2022-08-26T05:46:07.005Z,79.90
2022-08-26T05:47:08.847Z,79.80
2022-08-26T05:48:10.680Z,79.50
2022-08-26T05:49:14.451Z,79.80
2022-08-26T05:50:21.896Z,79.80
2022-08-26T05:51:26.207Z,79.90
2022-08-26T05:52:28.101Z,79.40
2022-08-26T05:53:29.841Z,79.70
2022-08-26T05:54:33.892Z,79.90
2022-08-26T05:55:41.295Z,80.00
2022-08-26T05:56:43.148Z,79.80
2022-08-26T05:57:45.108Z,79.50
2022-08-26T05:58:47.033Z,79.60
2022-08-26T05:59:48.735Z,79.60
2022-08-26T06:01:25.651Z,79.20
2022-08-26T06:02:28.439Z,80.50
2022-08-26T06:03:31.651Z,80.50
2022-08-26T06:04:33.629Z,80.40
2022-08-26T06:05:41.531Z,80.20
2022-08-26T06:06:43.306Z,80.20
2022-08-26T06:08:05.561Z,80.50
2022-08-26T06:09:11.006Z,80.60
2022-08-26T06:10:31.477Z,80.80
2022-08-26T06:11:34.747Z,80.20
2022-08-26T06:12:37.421Z,79.90
2022-08-26T06:13:39.755Z,79.70
2022-08-26T06:14:41.503Z,80.20
2022-08-26T06:15:45.866Z,80.20
2022-08-26T06:16:47.871Z,80.40
2022-08-26T06:17:49.638Z,79.90
2022-08-26T06:18:52.976Z,80.10
2022-08-26T06:19:54.672Z,80.00
2022-08-26T06:20:58.141Z,80.20
2022-08-26T06:22:23.338Z,80.20
2022-08-26T06:23:46.012Z,80.10
2022-08-26T06:25:06.535Z,79.90
2022-08-26T06:26:10.994Z,79.80
2022-08-26T06:27:14.000Z,80.20
2022-08-26T06:28:17.489Z,79.60
2022-08-26T06:29:24.726Z,79.10
2022-08-26T06:30:26.783Z,78.90
2022-08-26T06:31:29.441Z,79.00
2022-08-26T06:32:31.752Z,78.30
2022-08-26T06:33:33.928Z,78.50
2022-08-26T06:34:36.089Z,78.30
2022-08-26T06:35:39.850Z,78.30
2022-08-26T06:36:43.925Z,78.40
2022-08-26T06:37:46.099Z,78.40
2022-08-26T06:38:49.027Z,78.00
2022-08-26T06:39:51.169Z,78.20
2022-08-26T06:40:54.851Z,78.20
2022-08-26T06:41:56.897Z,77.90
2022-08-26T06:42:58.776Z,78.00
2022-08-26T06:44:01.514Z,77.90
2022-08-26T06:45:03.975Z,78.30
2022-08-26T06:46:10.550Z,78.20
2022-08-26T06:47:13.592Z,78.20
2022-08-26T06:48:18.537Z,77.70
2022-08-26T06:49:27.147Z,77.60
2022-08-26T06:50:29.841Z,77.30
2022-08-26T06:51:34.685Z,77.40
2022-08-26T06:52:36.483Z,78.40
2022-08-26T06:53:39.762Z,77.90
2022-08-26T06:54:43.257Z,77.80
2022-08-26T06:55:46.875Z,78.40
2022-08-26T06:56:53.837Z,77.30
2022-08-26T06:57:57.745Z,77.50
2022-08-26T06:59:00.564Z,77.40
2022-08-26T07:00:10.705Z,77.40
2022-08-26T07:01:31.763Z,77.70
2022-08-26T07:02:34.580Z,77.40
2022-08-26T07:03:39.610Z,77.10
2022-08-26T07:04:41.894Z,77.10
2022-08-26T07:05:44.346Z,76.80
2022-08-26T07:06:48.940Z,76.90
2022-08-26T07:07:52.411Z,76.50
2022-08-26T07:09:01.296Z,75.80
2022-08-26T07:10:06.007Z,76.60
2022-08-26T07:11:10.043Z,75.40
2022-08-26T07:12:12.393Z,75.20
2022-08-26T07:13:14.948Z,74.90
2022-08-26T07:14:21.217Z,74.80
2022-08-26T07:15:23.952Z,75.00
2022-08-26T07:16:29.920Z,74.40
2022-08-26T07:17:32.245Z,75.20
2022-08-26T07:18:36.729Z,74.80
2022-08-26T07:19:38.481Z,74.80
2022-08-26T07:20:42.307Z,74.00
2022-08-26T07:21:44.708Z,73.60
2022-08-26T07:22:46.415Z,73.50
2022-08-26T07:23:48.981Z,73.20
2022-08-26T07:24:50.897Z,73.30
2022-08-26T07:25:52.632Z,73.30
2022-08-26T07:26:54.346Z,72.80
2022-08-26T07:27:56.038Z,72.70
2022-08-26T07:28:59.409Z,73.00
2022-08-26T07:30:02.114Z,72.60
2022-08-26T07:31:11.363Z,72.50
2022-08-26T07:32:15.329Z,72.80
2022-08-26T07:33:20.062Z,72.50
2022-08-26T07:34:22.916Z,72.50
2022-08-26T07:35:25.488Z,72.10
2022-08-26T07:36:29.069Z,72.30
2022-08-26T07:37:30.800Z,72.20
2022-08-26T07:38:42.002Z,72.30
2022-08-26T07:39:44.309Z,72.30
2022-08-26T07:40:46.058Z,71.50
2022-08-26T07:41:47.813Z,71.50
2022-08-26T07:42:50.893Z,71.20
2022-08-26T07:43:53.792Z,71.00
2022-08-26T07:44:55.496Z,70.90
2022-08-26T07:45:57.660Z,71.30
2022-08-26T07:46:59.473Z,71.40
2022-08-26T07:48:01.402Z,71.20
2022-08-26T07:49:06.067Z,71.20
2022-08-26T07:50:08.787Z,70.70
2022-08-26T07:51:11.382Z,70.90
2022-08-26T07:52:13.101Z,70.90
2022-08-26T07:53:15.380Z,70.60
2022-08-26T07:54:20.152Z,70.90
2022-08-26T07:55:26.297Z,70.80
2022-08-26T07:56:28.224Z,70.00
2022-08-26T07:57:30.400Z,69.90
2022-08-26T07:58:32.212Z,68.90
2022-08-26T07:59:34.109Z,69.70
2022-08-26T08:00:35.922Z,69.30
2022-08-26T08:01:38.832Z,68.80
2022-08-26T08:02:40.625Z,68.90
2022-08-26T08:03:42.472Z,68.00
2022-08-26T08:04:44.319Z,67.00
2022-08-26T08:05:46.402Z,67.40
2022-08-26T08:06:48.643Z,67.20
2022-08-26T08:07:53.664Z,67.10
2022-08-26T08:09:14.930Z,66.90
2022-08-26T08:10:21.372Z,65.70
2022-08-26T08:11:24.660Z,65.10
2022-08-26T08:12:26.354Z,65.20
2022-08-26T08:13:28.454Z,66.00
2022-08-26T08:14:31.055Z,65.80
2022-08-26T08:15:34.247Z,65.80
2022-08-26T08:16:41.563Z,65.20
2022-08-26T08:17:47.929Z,64.50
2022-08-26T08:18:53.535Z,64.00
2022-08-26T08:19:55.429Z,64.00
2022-08-26T08:21:10.875Z,63.50
2022-08-26T08:22:23.549Z,62.40
2022-08-26T08:23:26.078Z,63.40
2022-08-26T08:24:28.750Z,63.20
2022-08-26T08:25:31.996Z,61.60
2022-08-26T08:26:35.212Z,62.50
2022-08-26T08:27:39.073Z,61.30
2022-08-26T08:28:40.866Z,61.20
2022-08-26T08:29:43.317Z,60.80
2022-08-26T08:30:45.124Z,61.60
2022-08-26T08:31:58.402Z,60.80
2022-08-26T08:33:03.212Z,60.10
2022-08-26T08:34:05.470Z,60.00
2022-08-26T08:35:11.112Z,60.30
2022-08-26T08:36:20.483Z,60.20
2022-08-26T08:37:23.144Z,60.30
2022-08-26T08:38:26.352Z,61.40
2022-08-26T08:39:31.554Z,59.50
2022-08-26T08:40:34.169Z,58.90
2022-08-26T08:41:48.241Z,58.90
2022-08-26T08:42:56.660Z,59.50
2022-08-26T08:44:01.655Z,59.80
2022-08-26T08:45:38.222Z,59.90
2022-08-26T08:46:42.474Z,58.10
2022-08-26T08:47:50.406Z,57.90
2022-08-26T08:48:57.022Z,57.10
2022-08-26T08:50:19.695Z,57.00
2022-08-26T08:51:42.632Z,58.00
2022-08-26T08:52:51.866Z,57.90
2022-08-26T08:53:55.031Z,57.10
2022-08-26T08:54:57.447Z,56.90
2022-08-26T08:56:26.098Z,57.70
2022-08-26T08:57:45.892Z,58.00
2022-08-26T08:59:06.633Z,57.20
2022-08-26T09:00:16.951Z,58.10
2022-08-26T09:01:33.577Z,56.90
2022-08-26T09:02:56.368Z,57.50
2022-08-26T09:04:13.117Z,56.90
2022-08-26T09:05:18.984Z,56.40
2022-08-26T09:06:21.087Z,56.20
2022-08-26T09:07:27.496Z,56.70
2022-08-26T09:08:35.219Z,55.20
2022-08-26T09:09:48.434Z,55.50
2022-08-26T09:10:57.979Z,55.60
2022-08-26T09:12:01.671Z,56.20
2022-08-26T09:13:09.834Z,55.70
2022-08-26T09:14:18.106Z,55.00
2022-08-26T09:15:48.658Z,55.30
2022-08-26T09:17:21.547Z,54.80
2022-08-26T09:18:35.653Z,54.90
2022-08-26T09:19:45.029Z,55.50
2022-08-26T09:21:03.521Z,54.20
2022-08-26T09:22:09.428Z,54.60
2022-08-26T09:23:11.971Z,54.30
2022-08-26T09:24:14.199Z,54.50
2022-08-26T09:25:16.249Z,53.90
2022-08-26T09:26:25.936Z,54.50
2022-08-26T09:27:42.223Z,53.40
2022-08-26T09:29:02.359Z,54.20
2022-08-26T09:30:05.328Z,53.90
2022-08-26T09:31:11.702Z,53.50
2022-08-26T09:32:25.256Z,53.60
2022-08-26T09:33:30.380Z,54.00
2022-08-26T09:34:32.076Z,53.90
2022-08-26T09:35:39.574Z,52.50
2022-08-26T09:36:47.851Z,52.70
2022-08-26T09:38:56.392Z,53.10
2022-08-26T09:40:12.226Z,53.80
2022-08-26T09:41:36.965Z,54.60
2022-08-26T09:42:38.698Z,53.20
2022-08-26T09:43:41.935Z,54.10
2022-08-26T09:44:52.605Z,53.70
2022-08-26T09:46:18.490Z,54.30
2022-08-26T09:47:45.571Z,54.70
2022-08-26T09:48:47.389Z,54.60
2022-08-26T09:50:01.575Z,54.80
2022-08-26T09:51:26.836Z,54.10
2022-08-26T09:52:28.844Z,54.70
2022-08-26T09:53:37.535Z,54.20
2022-08-26T09:54:40.702Z,54.80
2022-08-26T09:55:49.843Z,54.40
2022-08-26T09:56:52.404Z,55.60
2022-08-26T09:57:55.620Z,56.70
2022-08-26T09:59:00.169Z,55.10
2022-08-26T10:00:22.869Z,55.40
2022-08-26T10:01:36.122Z,56.30
2022-08-26T10:02:41.607Z,56.00
2022-08-26T10:03:50.639Z,56.10
2022-08-26T10:04:55.291Z,55.10
2022-08-26T10:06:07.827Z,55.00
2022-08-26T10:07:09.832Z,55.30
2022-08-26T10:08:23.095Z,55.80
2022-08-26T10:09:26.512Z,56.40
2022-08-26T10:10:41.993Z,56.40
2022-08-26T10:12:00.161Z,56.00
2022-08-26T10:13:11.202Z,56.00
2022-08-26T10:14:20.205Z,56.10
2022-08-26T10:15:25.291Z,56.00
2022-08-26T10:16:29.796Z,56.60
2022-08-26T10:17:39.434Z,56.60
2022-08-26T10:18:59.903Z,57.20
2022-08-26T10:20:09.841Z,57.40
2022-08-26T10:21:49.571Z,57.50
2022-08-26T10:23:06.732Z,58.50
2022-08-26T10:24:11.316Z,58.90
2022-08-26T10:25:17.227Z,58.90
2022-08-26T10:26:25.176Z,58.70
2022-08-26T10:27:48.448Z,59.20
2022-08-26T10:29:10.036Z,59.20
2022-08-26T10:30:16.153Z,59.10
2022-08-26T10:31:38.246Z,59.30
2022-08-26T10:32:56.709Z,59.50
2022-08-26T10:34:00.403Z,59.40
2022-08-26T10:35:03.993Z,59.20
2022-08-26T10:36:39.268Z,59.60
2022-08-26T10:37:55.838Z,59.60
2022-08-26T10:39:01.816Z,59.80
2022-08-26T10:40:25.388Z,59.00
2022-08-26T10:41:32.141Z,59.00
2022-08-26T10:42:37.535Z,58.40
2022-08-26T10:43:58.585Z,58.50
2022-08-26T10:45:11.920Z,58.40
2022-08-26T10:46:27.361Z,58.30
2022-08-26T10:47:38.351Z,57.50
2022-08-26T10:49:03.206Z,57.10
2022-08-26T10:50:08.432Z,57.10
2022-08-26T10:51:12.947Z,57.80
2022-08-26T10:52:28.444Z,57.50
2022-08-26T10:53:32.676Z,58.20
2022-08-26T10:54:54.778Z,57.70
2022-08-26T10:56:46.677Z,58.00
2022-08-26T10:58:11.626Z,57.30
2022-08-26T10:59:39.173Z,57.90
2022-08-26T11:01:10.788Z,58.40
2022-08-26T11:02:24.683Z,57.30
2022-08-26T11:03:34.358Z,57.40
2022-08-26T11:04:54.769Z,55.90
2022-08-26T11:06:15.270Z,55.80
2022-08-26T11:07:36.841Z,55.20
2022-08-26T11:08:53.089Z,55.80
2022-08-26T11:09:54.875Z,55.80
2022-08-26T11:11:00.378Z,56.00
2022-08-26T11:12:09.938Z,56.80
2022-08-26T11:13:12.173Z,55.40
2022-08-26T11:14:29.234Z,54.80
2022-08-26T11:15:31.494Z,54.80
2022-08-26T11:16:54.135Z,55.60
2022-08-26T11:18:02.363Z,55.60
2022-08-26T11:19:05.146Z,55.50
2022-08-26T11:20:13.520Z,55.30
2022-08-26T11:21:44.611Z,54.10
2022-08-26T11:22:47.783Z,53.30
2022-08-26T11:23:50.190Z,53.80
2022-08-26T11:24:55.554Z,53.20
2022-08-26T11:26:18.878Z,53.40
2022-08-26T11:27:36.796Z,53.00
2022-08-26T11:28:50.205Z,52.50
2022-08-26T11:30:13.646Z,53.50
2022-08-26T11:31:25.202Z,53.50
2022-08-26T11:32:39.110Z,52.80
2022-08-26T11:33:43.926Z,53.50
2022-08-26T11:34:58.349Z,53.80
2022-08-26T11:36:00.622Z,53.20
2022-08-26T11:37:17.516Z,53.40
2022-08-26T11:38:28.951Z,54.20
2022-08-26T11:39:57.687Z,54.80
2022-08-26T11:41:11.537Z,54.70
2022-08-26T11:42:31.989Z,53.60
2022-08-26T11:43:34.250Z,54.40
2022-08-26T11:44:40.562Z,54.80
2022-08-26T11:45:48.976Z,54.20
2022-08-26T11:47:03.009Z,53.10
2022-08-26T11:48:22.795Z,53.20
2022-08-26T11:49:28.330Z,52.30
2022-08-26T11:50:30.143Z,52.90
2022-08-26T11:51:34.952Z,52.50
2022-08-26T11:52:40.267Z,53.40
2022-08-26T11:53:47.364Z,53.10
2022-08-26T11:55:08.803Z,53.40
2022-08-26T11:56:32.491Z,52.80
2022-08-26T11:57:40.594Z,53.10
2022-08-26T11:58:44.784Z,52.60
2022-08-26T11:59:46.678Z,52.20
2022-08-26T12:01:05.441Z,51.80
2022-08-26T12:02:17.795Z,51.60
2022-08-26T12:03:25.136Z,51.10
2022-08-26T12:04:37.691Z,51.40
2022-08-26T12:05:44.878Z,51.60
2022-08-26T12:06:51.052Z,52.20
2022-08-26T12:07:54.324Z,51.70
2022-08-26T12:09:02.408Z,52.60
2022-08-26T12:10:06.844Z,51.10
2022-08-26T12:11:13.600Z,51.60
2022-08-26T12:12:36.046Z,51.10
2022-08-26T12:13:39.175Z,52.00
2022-08-26T12:14:41.813Z,51.40
2022-08-26T12:15:53.324Z,50.40
2022-08-26T12:17:13.026Z,50.30
2022-08-26T12:18:29.324Z,50.90
2022-08-26T12:19:33.838Z,50.00
2022-08-26T12:20:58.774Z,49.50
2022-08-26T12:22:15.895Z,50.00
2022-08-26T12:23:26.053Z,48.80
2022-08-26T12:24:28.313Z,48.40
2022-08-26T12:25:36.296Z,48.30
2022-08-26T12:26:39.351Z,48.70
2022-08-26T12:27:43.081Z,47.70
2022-08-26T12:28:49.013Z,48.00
2022-08-26T12:30:12.369Z,47.90
2022-08-26T12:31:29.136Z,48.50
2022-08-26T12:32:31.818Z,46.90
2022-08-26T12:33:37.900Z,46.70
2022-08-26T12:34:42.229Z,46.90
2022-08-26T12:35:44.881Z,47.20
2022-08-26T12:36:52.954Z,46.40
2022-08-26T12:37:55.308Z,45.40
2022-08-26T12:39:05.383Z,46.00
2022-08-26T12:40:43.241Z,44.60
2022-08-26T12:41:48.785Z,45.50
2022-08-26T12:42:50.628Z,45.30
2022-08-26T12:43:52.390Z,44.30
2022-08-26T12:45:04.381Z,44.50
2022-08-26T12:46:08.869Z,44.80
2022-08-26T12:47:33.841Z,44.80
2022-08-26T12:48:49.594Z,45.20
2022-08-26T12:50:00.005Z,43.70
2022-08-26T12:51:03.580Z,42.90
2022-08-26T12:52:09.709Z,43.20
2022-08-26T12:53:11.392Z,43.60
2022-08-26T12:54:15.907Z,44.00
2022-08-26T12:55:39.183Z,43.20
2022-08-26T12:56:41.069Z,44.70
2022-08-26T12:57:42.949Z,43.10
2022-08-26T12:58:44.989Z,43.80
2022-08-26T12:59:46.768Z,43.70
2022-08-26T13:00:49.643Z,43.70
2022-08-26T13:01:53.601Z,42.80
2022-08-26T13:02:55.678Z,43.00
2022-08-26T13:03:57.902Z,42.80
2022-08-26T13:05:00.937Z,43.00
2022-08-26T13:06:20.833Z,43.00
2022-08-26T13:07:25.835Z,41.90
2022-08-26T13:08:28.295Z,41.40
2022-08-26T13:09:31.442Z,41.70
2022-08-26T13:10:36.398Z,40.50
2022-08-26T13:11:40.881Z,40.70
2022-08-26T13:12:42.600Z,40.60
2022-08-26T13:13:45.729Z,40.40
2022-08-26T13:14:49.454Z,40.70
2022-08-26T13:15:52.460Z,40.60
2022-08-26T13:16:54.333Z,40.50
2022-08-26T13:17:56.137Z,40.70
2022-08-26T13:19:02.071Z,41.20
2022-08-26T13:20:04.662Z,41.20
2022-08-26T13:21:13.281Z,40.80
2022-08-26T13:22:24.250Z,40.10
2022-08-26T13:23:26.138Z,40.10
2022-08-26T13:24:32.766Z,40.30
2022-08-26T13:25:34.557Z,40.20
2022-08-26T13:26:36.330Z,39.60
2022-08-26T13:27:38.085Z,40.10
2022-08-26T13:28:39.844Z,40.40
2022-08-26T13:29:42.048Z,40.40
2022-08-26T13:30:47.772Z,41.00
2022-08-26T13:31:50.074Z,40.90
2022-08-26T13:32:57.229Z,41.20
2022-08-26T13:33:59.637Z,42.00
2022-08-26T13:35:05.827Z,41.60
2022-08-26T13:36:08.022Z,41.00
2022-08-26T13:37:09.757Z,41.40
2022-08-26T13:38:33.013Z,41.70
2022-08-26T13:39:35.791Z,42.10
2022-08-26T13:40:37.551Z,41.50
2022-08-26T13:41:39.559Z,41.60
2022-08-26T13:42:49.508Z,42.10
2022-08-26T13:43:53.591Z,41.90
2022-08-26T13:44:58.126Z,42.60
2022-08-26T13:46:01.517Z,42.30
2022-08-26T13:47:03.367Z,42.10
2022-08-26T13:48:06.567Z,42.10
2022-08-26T13:49:08.739Z,42.10
2022-08-26T13:50:10.690Z,42.60
2022-08-26T13:51:12.505Z,42.80
2022-08-26T13:52:14.317Z,42.90
2022-08-26T13:53:17.352Z,43.30
2022-08-26T13:54:19.195Z,44.50
2022-08-26T13:55:20.963Z,44.90
2022-08-26T13:56:23.766Z,45.70
2022-08-26T13:57:27.914Z,47.10
2022-08-26T13:58:29.720Z,47.30
2022-08-26T13:59:31.995Z,47.90
2022-08-26T14:00:34.247Z,48.30
2022-08-26T14:01:36.348Z,48.50
2022-08-26T14:02:38.159Z,49.50
2022-08-26T14:03:40.054Z,49.90
2022-08-26T14:04:41.963Z,50.10
2022-08-26T14:05:43.807Z,49.90
2022-08-26T14:06:45.608Z,50.50
2022-08-26T14:07:49.581Z,51.00
2022-08-26T14:08:51.354Z,51.50
2022-08-26T14:09:53.206Z,51.90
2022-08-26T14:10:55.010Z,52.10
2022-08-26T14:11:58.129Z,51.80
2022-08-26T14:13:00.840Z,51.90
2022-08-26T14:14:02.618Z,52.00
2022-08-26T14:15:04.755Z,51.60
2022-08-26T14:16:13.418Z,52.20